Flight Track Log - Related Links

Times and Time Zones

All times are in EDT time to prevent confusion due to time zone crossing. See the AAL1398 flight status page for this flight to view local times or setup timezone preferences in your user account.

Time Position Orientation Groundspeed Altitude Reporting Facility
EDT Latitude Longitude Course Direction KTS MPH feet Rate Location/Type
Sat 12:38:00 PM 18.6053 -69.7844 328° Northwest  Level FlightAware Approximate
Sat 12:39:00 PM 18.6931 -69.8422 328° Northwest  Level FlightAware Approximate
Sat 12:40:00 PM 18.7808 -69.9001 328° Northwest  Level FlightAware Approximate
Sat 12:41:00 PM 18.8686 -69.9581 328° Northwest  Level FlightAware Approximate
Sat 12:42:00 PM 18.9563 -70.0161 328° Northwest  Level FlightAware Approximate
Sat 12:43:00 PM 19.0440 -70.0742 328° Northwest  Level FlightAware Approximate
Sat 12:44:00 PM 19.1317 -70.1323 328° Northwest  Level FlightAware Approximate
Sat 12:45:00 PM 19.2063 -70.1880 325° Northwest  Level FlightAware Approximate
Sat 12:46:00 PM 19.2908 -70.2514 325° Northwest  Level FlightAware Approximate
Sat 12:47:00 PM 19.3766 -70.3126 327° Northwest  Level FlightAware Approximate
Sat 12:48:00 PM 19.4637 -70.3718 327° Northwest  Level FlightAware Approximate
Sat 12:49:00 PM 19.5508 -70.4310 327° Northwest  Level FlightAware Approximate
Sat 12:50:00 PM 19.6380 -70.4903 327° Northwest  Level FlightAware Approximate
Sat 12:51:00 PM 19.7250 -70.5497 327° Northwest  Level FlightAware Approximate
Sat 12:52:00 PM 19.8088 -70.6141 323° Northwest  Level FlightAware Approximate
Sat 12:52:40 PM 19.4200 -70.5586 322° Northwest 438 504 32,000  Level Miami Center
Sat 12:53:00 PM 19.8911 -70.6807 323° Northwest  Level FlightAware Approximate
Sat 12:53:40 PM 19.5242 -70.6108 335° Northwest 433 498 32,000  Level Miami Center
Sat 12:54:00 PM 19.9735 -70.7474 323° Northwest  Level FlightAware Approximate
Sat 12:54:40 PM 19.6264 -70.6703 331° Northwest 426 490 32,000  Level Miami Center
Sat 12:55:00 PM 20.0558 -70.8141 323° Northwest  Level FlightAware Approximate
Sat 12:55:40 PM 19.7289 -70.7317 331° Northwest 420 483 32,000  Level Miami Center
Sat 12:56:00 PM 20.1376 -70.8816 322° Northwest  Level FlightAware Approximate
Sat 12:56:40 PM 19.8311 -70.7889 332° Northwest 425 489 32,000  Level Miami Center
Sat 12:57:00 PM 20.2188 -70.9499 322° Northwest  Level FlightAware Approximate
Sat 12:57:40 PM 19.9356 -70.8481 332° Northwest 425 489 32,000  Level Miami Center
Sat 12:58:00 PM 20.3000 -71.0183 322° Northwest  Level FlightAware Approximate
Sat 12:58:40 PM 20.0378 -70.9078 331° Northwest 425 489 32,000  Level Miami Center
Sat 12:59:40 PM 20.1400 -70.9650 332° Northwest 425 489 32,000  Level Miami Center
Sat 01:00:40 PM 20.2422 -71.0247 331° Northwest 425 489 32,000  Level Miami Center
Sat 01:01:40 PM 20.3444 -71.0822 332° Northwest 420 483 32,000  Level Miami Center
Sat 01:02:40 PM 20.4367 -71.1581 322° Northwest 420 483 32,000  Level Miami Center
Sat 01:03:40 PM 20.5072 -71.2614 306° West 414 476 32,000 100 Level Miami Center
Sat 01:04:40 PM 20.5736 -71.3694 303° West 426 490 32,200 900 Climbing Miami Center
Sat 01:05:40 PM 20.6378 -71.4753 303° West 431 496 33,800 950 Climbing Miami Center
Sat 01:06:40 PM 20.7039 -71.5814 304° West 431 496 34,100 900 Climbing Miami Center
Sat 01:07:40 PM 20.7700 -71.6875 304° West 426 490 35,600 1,250 Climbing Miami Center
Sat 01:08:40 PM 20.8361 -71.7914 304° West 426 490 36,600 1,150 Climbing Miami Center
Sat 01:09:40 PM 20.9022 -71.8975 304° West 426 490 37,900 700 Climbing Miami Center
Sat 01:10:40 PM 20.9658 -72.0019 303° West 426 490 38,000 50 Climbing Miami Center
Sat 01:11:40 PM 21.0319 -72.1083 304° West 426 490 38,000  Level Miami Center
Sat 01:12:40 PM 21.0889 -72.1997 304° West 421 484 38,000  Level Miami Center
Sat 01:13:40 PM 21.1525 -72.3022 304° West 421 484 38,000  Level Miami Center
Sat 01:14:40 PM 21.2161 -72.4089 303° West 421 484 38,000  Level Miami Center
Sat 01:15:40 PM 21.2794 -72.5136 303° West 421 484 38,000  Level Miami Center
Sat 01:16:40 PM 21.3472 -72.6183 305° West 421 484 38,000  Level Miami Center
Sat 01:17:40 PM 21.4106 -72.7233 303° West 421 484 38,000  Level Miami Center
Sat 01:18:40 PM 21.4761 -72.8283 304° West 421 484 38,000  Level Miami Center
Sat 01:19:40 PM 21.5433 -72.9358 304° West 426 490 38,000  Level Miami Center
Sat 01:20:40 PM 21.6089 -73.0431 303° West 426 490 38,000  Level Miami Center
Sat 01:21:40 PM 21.6761 -73.1506 304° West 426 490 38,000  Level Miami Center
Sat 01:22:40 PM 21.7414 -73.2583 303° West 426 490 38,000  Level Miami Center
Sat 01:23:40 PM 21.8022 -73.3639 302° West 426 490 38,000  Level Miami Center
Sat 01:24:40 PM 21.8694 -73.4742 303° West 426 490 38,000  Level Miami Center
Sat 01:25:40 PM 21.9367 -73.5842 303° West 426 490 38,000  Level Miami Center
Sat 01:26:40 PM 22.0036 -73.6922 304° West 426 490 38,000  Level Miami Center
Sat 01:27:40 PM 22.0606 -73.8164 296° West 423 487 38,000  Level Miami Center
Sat 01:28:40 PM 22.1231 -73.9269 301° West 428 493 38,000  Level Miami Center
Sat 01:29:40 PM 22.1878 -74.0353 303° West 428 493 38,000  Level Miami Center
Sat 01:30:40 PM 22.2567 -74.1439 304° West 433 498 38,000  Level Miami Center
Sat 01:31:40 PM 22.3214 -74.2569 302° West 433 498 38,000  Level Miami Center
Sat 01:32:40 PM 22.3858 -74.3681 302° West 433 498 38,000  Level Miami Center
Sat 01:33:40 PM 22.4522 -74.4769 303° West 433 498 38,000  Level Miami Center
Sat 01:34:40 PM 22.5189 -74.5881 303° West 438 504 38,000  Level Miami Center
Sat 01:35:40 PM 22.5853 -74.6994 303° West 438 504 38,000  Level Miami Center
Sat 01:36:40 PM 22.6472 -74.8108 301° West 438 504 38,000  Level Miami Center
Sat 01:37:40 PM 22.7136 -74.9200 303° West 443 510 38,000  Level Miami Center
Sat 01:38:40 PM 22.7775 -75.0294 302° West 443 510 38,000  Level Miami Center
Sat 01:39:40 PM 22.8436 -75.1414 303° West 443 510 38,000  Level Miami Center
Sat 01:40:40 PM 22.9056 -75.2511 302° West 438 504 38,000  Level Miami Center
Sat 01:41:40 PM 22.9628 -75.3472 303° West 433 498 38,000  Level Miami Center
Sat 01:42:40 PM 23.0267 -75.4572 302° West 428 493 38,000  Level Miami Center
Sat 01:43:40 PM 23.0883 -75.5647 302° West 428 493 38,000  Level Miami Center
Sat 01:44:40 PM 23.1497 -75.6728 302° West 423 487 38,000  Level Miami Center
Sat 01:45:40 PM 23.2111 -75.7806 302° West 423 487 38,000  Level Miami Center
Sat 01:46:40 PM 23.2725 -75.8908 301° West 423 487 38,000  Level Miami Center
Sat 01:47:40 PM 23.3358 -76.0014 302° West 423 487 38,000  Level Miami Center
Sat 01:48:40 PM 23.3992 -76.1072 303° West 423 487 38,000  Level Miami Center
Sat 01:49:40 PM 23.4622 -76.2133 303° West 418 481 38,000  Level Miami Center
Sat 01:50:40 PM 23.5275 -76.3308 301° West 418 481 38,000  Level Miami Center
Sat 01:51:40 PM 23.5883 -76.4372 302° West 418 481 38,000  Level Miami Center
Sat 01:52:40 PM 23.6472 -76.5414 302° West 418 481 38,000  Level Miami Center
Sat 01:53:40 PM 23.7058 -76.6456 302° West 413 475 38,000  Level Miami Center
Sat 01:54:40 PM 23.7647 -76.7522 301° West 413 475 38,000  Level Miami Center
Sat 01:55:40 PM 23.8272 -76.8567 303° West 408 470 38,000 -550 Level Miami Center
Sat 01:56:40 PM 23.8878 -76.9656 301° West 408 470 36,900 -1,000 Descending Miami Center
Sat 01:57:40 PM 23.9233 -77.0681 291° West 408 470 36,000 -450 Descending Miami Center
Sat 01:58:40 PM 23.9439 -77.1978 280° West 417 480 36,000  Level Miami Center
Sat 01:59:40 PM 23.9583 -77.3408 276° West 424 488 36,000  Level Miami Center
Sat 02:00:40 PM 23.9703 -77.4706 276° West 434 499 36,000  Level Miami Center
Sat 02:01:40 PM 23.9844 -77.6003 277° West 434 499 36,000  Level Miami Center
Sat 02:02:40 PM 23.9983 -77.7256 277° West 427 491 36,000  Level Miami Center
Sat 02:03:40 PM 24.0100 -77.8575 276° West 427 491 36,000  Level Miami Center
Sat 02:04:40 PM 24.0239 -77.9850 277° West 427 491 36,000  Level Miami Center
Sat 02:05:40 PM 24.0519 -78.1106 284° West 427 491 36,000  Level Miami Center
Sat 02:06:40 PM 24.1286 -78.2114 310° West 410 472 36,000  Level Miami Center
Sat 02:07:40 PM 24.2092 -78.3081 312° West 424 488 36,000  Level Miami Center
Sat 02:08:40 PM 24.2897 -78.4022 313° West 424 488 36,000  Level Miami Center
Sat 02:09:40 PM 24.3700 -78.4992 312° West 429 494 36,000  Level Miami Center
Sat 02:10:40 PM 24.4483 -78.5936 312° West 429 494 36,000  Level Miami Center
Sat 02:11:40 PM 24.5289 -78.6886 313° West 424 488 36,000 -1,300 Level Miami Center
Sat 02:13:00 PM 24.6231 -78.8103 310° West  Level FlightAware Approximate
Sat 02:13:40 PM 24.6933 -78.8853 310° West 424 488 32,100  Level Miami Center
Sat 02:14:40 PM 24.7778 -78.9828 314° West 429 494 29,700 -2,400 Descending Miami Center
Sat 02:15:40 PM 24.8600 -79.0806 313° West 429 494 27,300 -2,050 Descending Miami Center
Sat 02:16:40 PM 24.9358 -79.1781 311° West 429 494 25,600 -2,050 Descending Miami Center
Sat 02:17:40 PM 25.0117 -79.2667 313° West 417 480 23,200 -2,450 Descending Miami Center
Sat 02:18:40 PM 25.0833 -79.3553 312° West 398 458 20,700 -2,200 Descending Miami Center
Sat 02:19:40 PM 25.1550 -79.4369 314° West 386 444 18,800 -1,850 Descending Miami Center
Sat 02:20:40 PM 25.2439 -79.4939 330° Northwest 371 427 17,000 -1,650 Descending Miami Center
Sat 02:21:40 PM 25.3200 -79.5622 321° Northwest 371 427 15,500 -1,271 Descending Miami Center
Sat 02:22:05 PM 25.3381 -79.6017 297° West 322 371 15,200 -1,500 Descending Miami Center
Sat 02:22:40 PM 25.3600 -79.6483 297° West 333 383 14,000 -2,060 Descending Miami Center
Sat 02:23:12 PM 25.3758 -79.6969 290° West 301 346 12,900 -1,900 Descending Miami Center
Sat 02:23:40 PM 25.3961 -79.7294 305° West 313 360 12,100 -871 Descending Miami Center
Sat 02:24:14 PM 25.4203 -79.7761 300° West 296 341 12,000 -100 Descending Miami Center
Sat 02:24:40 PM 25.4428 -79.8044 311° West 301 346 12,000  Level Miami Center
Sat 02:25:15 PM 25.4711 -79.8511 304° West 296 341 12,000 -100 Level Miami Center
Sat 02:25:40 PM 25.4933 -79.8792 311° West 301 346 11,900 -806 Descending Miami Center
Sat 02:26:22 PM 25.5217 -79.9328 300° West 296 341 11,100 -1,200 Descending Miami Center
Sat 02:26:40 PM 25.5400 -79.9517 317° Northwest 301 346 10,700 -1,279 Descending Miami Center
Sat 02:27:23 PM 25.5722 -80.0078 302° West 286 329 9,800 -1,300 Descending Miami Center
Sat 02:27:40 PM 25.5867 -80.0219 319° Northwest 296 341 9,400 -1,179 Descending Miami Center
Sat 02:28:19 PM 25.6147 -80.0711 302° West 276 318 8,700 -1,300 Descending Miami Center
Sat 02:28:40 PM 25.6311 -80.0900 314° West 285 328 8,100 -689 Descending Miami Center
Sat 02:29:20 PM 25.6572 -80.1392 301° West 266 306 8,000 -100 Descending Miami Center
Sat 02:29:40 PM 25.6672 -80.1578 301° West 271 312 8,000  Level Miami Center
Sat 02:30:21 PM 25.6764 -80.2064 282° West 227 261 8,000  Level Miami Center
Sat 02:30:40 PM 25.6844 -80.2253 295° West 242 278 8,000 -1,063 Level Miami Center
Sat 02:31:40 PM 25.7017 -80.2903 286° West 228 262 6,600 -1,456 Descending Miami Center
Sat 02:32:23 PM 25.7067 -80.3411 276° West 222 255 5,500 -1,582 Descending Miami Center
Sat 02:33:30 PM 25.7050 -80.4194 269° West 220 253 3,700 -1,612 Descending Miami Center

Login

Don't have an account? Register now (free) for customized features, flight alerts, and more!